Nabij gelegen weerstations

 

EHGG - Groningen/Eelde, Netherlands
Distance from station: NO 47km
Updated: 18/04/2024 13:25
Meestal bewolkt
Meestal bewolkt
 Wind van NW
Wind: NW 19 km/h
Temperatuur: 11°C
Dauwpunt: 4°C
Vochtigheid: 62%
Barometer: 1018 hPa
Clouds: Meestal bewolkt
Visibility: 10 km
Cloud details: Meestal bewolkt 732 m
Meestal bewolkt 914 m
Meestal bewolkt 1494 m
2024/04/18 11:25 EHGG 181125Z AUTO 31010KT 250V360 9999 BKN024/// BKN030/// BKN049/// 11/04 Q1018 REDZ NOSIG
EHLW - Leeuwarden Rnlaf, Netherlands
Distance from station: NNW 48km
Updated: 18/04/2024 13:25
Zwaar bewolkt
Zwaar bewolkt
 Wind van NW
Wind: NW 19 km/h
Temperatuur: 9°C
Wind Chill: 6°C
Dauwpunt: 3°C
Vochtigheid: 66%
Barometer: 1019 hPa
Clouds: Zwaar bewolkt
Visibility: 10 km
Cloud details: Gedeeltelijk bewolkt 884 m
Zwaar bewolkt 1006 m
2024/04/18 11:25 EHLW 181125Z AUTO 31010KT 260V340 9999 SCT029 OVC033 09/03 Q1019 BLU NOSIG
 
EHLE - Lelystad, Netherlands
Distance from station: ZW 55km
Updated: 18/04/2024 13:25
Meestal bewolkt
Meestal bewolkt
 Wind van WNW
Wind: WNW 13 km/h
Temperatuur: 10°C
Wind Chill: 8°C
Dauwpunt: 3°C
Vochtigheid: 62%
Barometer: 1019 hPa
Clouds: Meestal bewolkt
Visibility: 10 km
Cloud details: Gedeeltelijk bewolkt 914 m
Meestal bewolkt 1097 m
Meestal bewolkt 1494 m
2024/04/18 11:25 EHLE 181125Z AUTO 30007KT 250V340 9999 SCT030 BKN036 BKN049 10/03 Q1019 NOSIG